Time;durP1;ratioP1;P1;durP2;ratioP2;P2;SDS_P1;SDS_P2;PMS_P1;PMS_P2;Temp;Humidity;BMP_temperature;BMP_pressure;BME280_temperature;BME280_humidity;BME280_pressure;Samples;Min_cycle;Max_cycle;Signal;HPM_P1;HPM_P2
2022/05/13 00:00:31;;;;;;;28.13;26.23;;;;;;;;;;5056104;28;20439;-91
2022/05/13 00:02:58;;;;;;;29.53;27.60;;;;;;;;;;5055044;28;20442;-89
2022/05/13 00:05:25;;;;;;;27.50;25.60;;;;;;;;;;5055370;28;20473;-90
2022/05/13 00:07:53;;;;;;;27.53;25.73;;;;;;;;;;5055678;28;20443;-90
2022/05/13 00:10:20;;;;;;;27.37;25.47;;;;;;;;;;5054831;28;20477;-91
2022/05/13 00:12:47;;;;;;;28.90;27.00;;;;;;;;;;5055276;28;20884;-91
2022/05/13 00:15:17;;;;;;;26.23;24.60;;;;;;;;;;5055071;28;20433;-91
2022/05/13 00:17:47;;;;;;;28.10;26.23;;;;;;;;;;5052385;28;20773;-90
2022/05/13 00:20:15;;;;;;;29.67;27.53;;;;;;;;;;5054557;28;20484;-91
2022/05/13 00:22:46;;;;;;;32.63;30.17;;;;;;;;;;5055181;28;20447;-90
2022/05/13 00:25:13;;;;;;;33.27;30.83;;;;;;;;;;5054325;28;20414;-90
2022/05/13 00:27:41;;;;;;;32.73;30.43;;;;;;;;;;5055173;28;20413;-90
2022/05/13 00:30:09;;;;;;;35.13;32.53;;;;;;;;;;5055736;28;20820;-91
2022/05/13 00:32:37;;;;;;;34.73;32.00;;;;;;;;;;5055232;28;20593;-90
2022/05/13 00:35:07;;;;;;;36.73;33.90;;;;;;;;;;5055276;28;20421;-91
2022/05/13 00:37:35;;;;;;;35.33;32.47;;;;;;;;;;5055035;28;20474;-90
2022/05/13 00:40:03;;;;;;;33.00;30.60;;;;;;;;;;5054950;28;20440;-91
2022/05/13 00:42:30;;;;;;;34.63;31.73;;;;;;;;;;5054258;28;20447;-88
2022/05/13 00:44:58;;;;;;;34.17;31.67;;;;;;;;;;5055010;28;20418;-90
2022/05/13 00:47:25;;;;;;;34.57;31.90;;;;;;;;;;5054783;28;20440;-91
2022/05/13 00:49:53;;;;;;;30.33;28.03;;;;;;;;;;5054658;28;20509;-90
2022/05/13 00:52:22;;;;;;;30.60;28.50;;;;;;;;;;5054581;28;20912;-90
2022/05/13 00:54:50;;;;;;;28.73;26.73;;;;;;;;;;5054672;28;20443;-90
2022/05/13 00:57:18;;;;;;;27.33;25.57;;;;;;;;;;5054517;28;20470;-90
2022/05/13 00:59:46;;;;;;;31.53;29.33;;;;;;;;;;5053441;28;20482;-91
2022/05/13 01:02:15;;;;;;;31.00;28.90;;;;;;;;;;5054612;28;20435;-90
2022/05/13 01:04:43;;;;;;;28.57;26.50;;;;;;;;;;5054808;28;20409;-90
2022/05/13 01:07:12;;;;;;;30.10;28.00;;;;;;;;;;5054770;28;20447;-90
2022/05/13 01:09:42;;;;;;;29.50;27.40;;;;;;;;;;5054367;28;20483;-91
2022/05/13 01:12:12;;;;;;;27.53;25.83;;;;;;;;;;5054409;28;20451;-90
2022/05/13 01:14:40;;;;;;;27.97;26.03;;;;;;;;;;5054641;28;20406;-91
2022/05/13 01:20:08;;;;;;;30.23;28.00;;;;;;;;;;5054120;28;20805;-90
2022/05/13 01:22:43;;;;;;;29.10;27.00;;;;;;;;;;5054400;28;20929;-90
2022/05/13 01:25:11;;;;;;;27.83;26.03;;;;;;;;;;5054586;28;20475;-90
2022/05/13 01:27:38;;;;;;;29.53;27.03;;;;;;;;;;5054159;28;20443;-90
2022/05/13 01:30:06;;;;;;;30.47;28.17;;;;;;;;;;5053803;28;20490;-89
2022/05/13 01:32:33;;;;;;;27.97;26.10;;;;;;;;;;5053806;28;20925;-88
2022/05/13 01:35:01;;;;;;;28.97;26.77;;;;;;;;;;5053915;28;20451;-90
2022/05/13 01:37:28;;;;;;;29.23;27.13;;;;;;;;;;5032200;28;20447;-90
2022/05/13 01:39:57;;;;;;;27.57;25.60;;;;;;;;;;5054091;28;20855;-90
2022/05/13 01:42:25;;;;;;;28.37;26.50;;;;;;;;;;5053714;28;20436;-90
2022/05/13 01:44:52;;;;;;;28.93;27.00;;;;;;;;;;5054097;28;20467;-91
2022/05/13 01:47:19;;;;;;;29.63;27.10;;;;;;;;;;5054112;28;20462;-90
2022/05/13 01:49:47;;;;;;;29.07;27.07;;;;;;;;;;5052696;28;20818;-90
2022/05/13 01:52:14;;;;;;;28.97;26.80;;;;;;;;;;5053653;28;20443;-90
2022/05/13 01:54:41;;;;;;;28.23;26.33;;;;;;;;;;5053892;28;20447;-90
2022/05/13 01:57:10;;;;;;;27.47;25.50;;;;;;;;;;5054067;28;20467;-90
2022/05/13 01:59:38;;;;;;;28.30;26.40;;;;;;;;;;5054091;28;20426;-90
2022/05/13 02:02:05;;;;;;;29.10;27.20;;;;;;;;;;5053522;28;20443;-91
2022/05/13 02:04:33;;;;;;;30.87;28.57;;;;;;;;;;5053856;28;20436;-90
2022/05/13 02:07:00;;;;;;;28.40;26.50;;;;;;;;;;5054010;28;20501;-91
2022/05/13 02:09:28;;;;;;;28.37;26.50;;;;;;;;;;5052251;28;20472;-91
2022/05/13 02:11:55;;;;;;;29.30;27.30;;;;;;;;;;5053562;28;20870;-90
2022/05/13 02:14:24;;;;;;;29.50;27.40;;;;;;;;;;5047446;28;20436;-90
2022/05/13 02:16:52;;;;;;;27.83;25.83;;;;;;;;;;5054002;28;20439;-91
2022/05/13 02:19:19;;;;;;;28.67;26.67;;;;;;;;;;5053588;28;20463;-86
2022/05/13 02:21:46;;;;;;;28.70;26.60;;;;;;;;;;5053922;28;20787;-90
2022/05/13 02:24:14;;;;;;;29.47;27.30;;;;;;;;;;5053689;28;20459;-91
2022/05/13 02:26:41;;;;;;;27.40;25.70;;;;;;;;;;5050104;28;20824;-90
2022/05/13 02:29:08;;;;;;;28.47;26.47;;;;;;;;;;5053729;28;20881;-90
2022/05/13 02:31:37;;;;;;;27.00;25.20;;;;;;;;;;5053917;28;20944;-90
2022/05/13 02:34:04;;;;;;;29.00;27.00;;;;;;;;;;5053846;28;20786;-91
2022/05/13 02:36:32;;;;;;;29.90;27.50;;;;;;;;;;5054261;28;20784;-90
2022/05/13 02:38:59;;;;;;;29.10;27.10;;;;;;;;;;5053949;28;21004;-90
2022/05/13 02:41:27;;;;;;;29.13;27.13;;;;;;;;;;5053294;28;20921;-91
2022/05/13 02:43:56;;;;;;;27.63;25.80;;;;;;;;;;5054950;28;20532;-91
2022/05/13 02:46:24;;;;;;;27.27;25.57;;;;;;;;;;5056987;28;20524;-90
2022/05/13 02:48:54;;;;;;;29.03;26.93;;;;;;;;;;5057460;28;20418;-90
2022/05/13 02:51:22;;;;;;;28.20;26.27;;;;;;;;;;5073616;28;20502;-89
2022/05/13 02:53:49;;;;;;;29.27;27.17;;;;;;;;;;5059685;28;20434;-90
2022/05/13 02:56:17;;;;;;;28.17;26.00;;;;;;;;;;5076617;28;20481;-91
2022/05/13 02:58:44;;;;;;;28.47;26.47;;;;;;;;;;5076932;28;20416;-90
2022/05/13 03:01:13;;;;;;;27.47;25.67;;;;;;;;;;5077227;28;20434;-90
2022/05/13 03:03:43;;;;;;;28.00;26.07;;;;;;;;;;5076474;28;20430;-90
2022/05/13 03:06:12;;;;;;;27.67;25.67;;;;;;;;;;5076354;28;20435;-91
2022/05/13 03:08:40;;;;;;;29.27;27.27;;;;;;;;;;5076887;28;20952;-90
2022/05/13 03:11:08;;;;;;;28.83;26.73;;;;;;;;;;5076671;28;20489;-90
2022/05/13 03:13:36;;;;;;;28.80;26.90;;;;;;;;;;5076164;28;20963;-90
2022/05/13 03:16:04;;;;;;;29.07;26.97;;;;;;;;;;5076334;28;20445;-91
2022/05/13 03:18:31;;;;;;;28.27;26.17;;;;;;;;;;5076416;28;20426;-90
2022/05/13 03:20:59;;;;;;;29.03;26.77;;;;;;;;;;5076065;28;20463;-90
2022/05/13 03:23:28;;;;;;;30.20;27.90;;;;;;;;;;5058475;28;20439;-89
2022/05/13 03:25:56;;;;;;;28.40;26.50;;;;;;;;;;5077091;28;20446;-91
2022/05/13 03:28:23;;;;;;;28.07;25.87;;;;;;;;;;5076354;28;20831;-90
2022/05/13 03:30:51;;;;;;;28.77;26.47;;;;;;;;;;5076702;28;20452;-90
2022/05/13 03:33:18;;;;;;;28.30;26.33;;;;;;;;;;5076143;28;20434;-91
2022/05/13 03:35:46;;;;;;;29.20;27.00;;;;;;;;;;5075929;28;20814;-89
2022/05/13 03:38:13;;;;;;;30.07;27.90;;;;;;;;;;5076072;28;20442;-91
2022/05/13 03:40:42;;;;;;;29.50;27.27;;;;;;;;;;5076017;28;20472;-91
2022/05/13 03:43:10;;;;;;;28.20;26.20;;;;;;;;;;5076138;28;20438;-89
2022/05/13 03:45:37;;;;;;;29.17;27.17;;;;;;;;;;5076126;28;20431;-88
2022/05/13 03:48:05;;;;;;;28.60;26.60;;;;;;;;;;5076101;28;20417;-90
2022/05/13 03:50:32;;;;;;;29.60;27.00;;;;;;;;;;5075515;28;20481;-89
2022/05/13 03:53:00;;;;;;;31.13;28.73;;;;;;;;;;5075976;28;20856;-90
2022/05/13 03:55:27;;;;;;;29.27;26.93;;;;;;;;;;5074376;28;20515;-90
2022/05/13 03:57:56;;;;;;;28.67;26.47;;;;;;;;;;5075518;28;20474;-90
2022/05/13 04:00:24;;;;;;;29.60;27.50;;;;;;;;;;5075689;28;20862;-90
2022/05/13 04:02:55;;;;;;;29.07;27.00;;;;;;;;;;5076000;28;20441;-90
2022/05/13 04:10:52;;;;;;;29.03;26.93;;;;;;;;;;5075386;28;20487;-90
2022/05/13 04:16:07;;;;;;;29.13;27.03;;;;;;;;;;5075340;28;20788;-90
2022/05/13 04:18:35;;;;;;;29.30;27.30;;;;;;;;;;5057269;28;20469;-90
2022/05/13 04:21:04;;;;;;;29.47;26.97;;;;;;;;;;5075020;28;20443;-90
2022/05/13 04:23:32;;;;;;;27.90;25.87;;;;;;;;;;5075189;28;20472;-90
2022/05/13 04:25:59;;;;;;;29.90;27.50;;;;;;;;;;5075295;28;20453;-90
2022/05/13 04:28:28;;;;;;;29.37;27.07;;;;;;;;;;5075568;28;20793;-89
2022/05/13 04:30:55;;;;;;;28.73;26.53;;;;;;;;;;5074776;28;20456;-90
2022/05/13 04:33:23;;;;;;;28.40;26.40;;;;;;;;;;5074913;28;20454;-90
2022/05/13 04:35:50;;;;;;;28.40;26.50;;;;;;;;;;5075147;28;20413;-89
2022/05/13 04:38:17;;;;;;;27.80;25.97;;;;;;;;;;5074618;28;20458;-90
2022/05/13 04:40:45;;;;;;;28.90;27.00;;;;;;;;;;5074827;28;20439;-90
2022/05/13 04:43:11;;;;;;;28.63;26.70;;;;;;;;;;5075290;28;20468;-89
2022/05/13 04:45:42;;;;;;;29.43;27.43;;;;;;;;;;5074626;28;20454;-89
2022/05/13 04:48:21;;;;;;;26.73;24.80;;;;;;;;;;5074954;28;20459;-90
2022/05/13 04:50:52;;;;;;;27.47;25.50;;;;;;;;;;5074329;28;20500;-90
2022/05/13 04:53:22;;;;;;;25.80;24.07;;;;;;;;;;5074743;28;20430;-89
2022/05/13 04:55:50;;;;;;;25.53;23.70;;;;;;;;;;5074753;28;20424;-90
2022/05/13 04:58:18;;;;;;;26.30;24.40;;;;;;;;;;5075520;28;20464;-90
2022/05/13 05:00:48;;;;;;;23.60;22.20;;;;;;;;;;5057911;28;20443;-90
2022/05/13 05:03:17;;;;;;;25.37;23.70;;;;;;;;;;5075692;28;20853;-90
2022/05/13 05:05:45;;;;;;;24.30;22.90;;;;;;;;;;5075158;28;20450;-90
2022/05/13 05:08:12;;;;;;;22.83;21.53;;;;;;;;;;5075068;28;20437;-89
2022/05/13 05:10:40;;;;;;;24.50;22.30;;;;;;;;;;5076404;28;20605;-90
2022/05/13 05:13:09;;;;;;;23.53;22.13;;;;;;;;;;5076212;28;20438;-89
2022/05/13 05:15:38;;;;;;;22.20;20.83;;;;;;;;;;5075790;28;20927;-89
2022/05/13 05:18:08;;;;;;;22.00;20.50;;;;;;;;;;5076585;28;20441;-90
2022/05/13 05:20:36;;;;;;;22.57;21.17;;;;;;;;;;5076929;28;20768;-89
2022/05/13 05:23:04;;;;;;;21.93;20.80;;;;;;;;;;5056805;28;20435;-88
2022/05/13 05:25:33;;;;;;;22.50;21.20;;;;;;;;;;5073767;28;20413;-88
2022/05/13 05:28:00;;;;;;;21.50;20.30;;;;;;;;;;5073974;28;20486;-87
2022/05/13 05:30:28;;;;;;;23.43;21.53;;;;;;;;;;5074038;28;20477;-88
2022/05/13 05:32:55;;;;;;;22.47;21.17;;;;;;;;;;5073752;28;20449;-88
2022/05/13 05:35:24;;;;;;;22.00;20.70;;;;;;;;;;5073629;28;20445;-89
2022/05/13 05:37:52;;;;;;;23.00;21.50;;;;;;;;;;5074239;28;20495;-88
2022/05/13 05:40:20;;;;;;;22.60;21.40;;;;;;;;;;5055599;28;20426;-88
2022/05/13 05:42:48;;;;;;;22.07;20.77;;;;;;;;;;5073845;28;20793;-87
2022/05/13 05:45:17;;;;;;;23.00;21.60;;;;;;;;;;5073968;28;20454;-88
2022/05/13 05:47:44;;;;;;;23.20;21.70;;;;;;;;;;5073974;28;20450;-88
2022/05/13 05:50:13;;;;;;;22.13;20.90;;;;;;;;;;5073910;28;20457;-89
2022/05/13 05:52:42;;;;;;;20.63;19.50;;;;;;;;;;5073880;28;20486;-90
2022/05/13 05:57:59;;;;;;;22.73;21.33;;;;;;;;;;5072728;28;20495;-84
2022/05/13 06:00:26;;;;;;;21.60;20.10;;;;;;;;;;5072692;28;20425;-83
2022/05/13 06:02:54;;;;;;;22.90;21.50;;;;;;;;;;5054447;28;20507;-84
2022/05/13 06:05:23;;;;;;;22.67;20.73;;;;;;;;;;5072429;28;20904;-84
2022/05/13 06:07:52;;;;;;;22.07;20.63;;;;;;;;;;5072614;28;20446;-83
2022/05/13 06:10:19;;;;;;;22.73;21.33;;;;;;;;;;5072717;28;20443;-83
2022/05/13 06:12:47;;;;;;;22.97;21.70;;;;;;;;;;5054410;28;20442;-83
2022/05/13 06:15:15;;;;;;;22.80;21.50;;;;;;;;;;5072578;28;20435;-83
2022/05/13 06:17:46;;;;;;;22.60;21.37;;;;;;;;;;5072835;28;20439;-84
2022/05/13 06:20:14;;;;;;;23.07;21.77;;;;;;;;;;5076514;28;20884;-83
2022/05/13 06:22:41;;;;;;;22.00;20.90;;;;;;;;;;5076322;28;20413;-83
2022/05/13 06:25:11;;;;;;;22.30;21.10;;;;;;;;;;5076298;28;20426;-83
2022/05/13 06:27:39;;;;;;;23.33;22.13;;;;;;;;;;5076139;28;20416;-84
2022/05/13 06:30:07;;;;;;;23.13;21.80;;;;;;;;;;5076344;28;20454;-82
2022/05/13 06:32:35;;;;;;;24.23;22.33;;;;;;;;;;5076340;28;20512;-84
2022/05/13 06:35:02;;;;;;;21.80;20.60;;;;;;;;;;5068675;28;20446;-83
2022/05/13 06:37:29;;;;;;;23.20;21.53;;;;;;;;;;5076218;28;20517;-84
2022/05/13 06:39:57;;;;;;;23.97;22.07;;;;;;;;;;5075751;28;20920;-83
2022/05/13 06:42:26;;;;;;;22.87;21.10;;;;;;;;;;5075831;28;20405;-84
2022/05/13 06:44:53;;;;;;;22.97;21.30;;;;;;;;;;5075905;28;20416;-83
2022/05/13 06:47:20;;;;;;;22.17;20.90;;;;;;;;;;5075579;28;20515;-83
2022/05/13 06:49:48;;;;;;;21.73;20.63;;;;;;;;;;5075770;28;20481;-83
2022/05/13 06:52:15;;;;;;;22.40;21.20;;;;;;;;;;5075655;28;20486;-83
2022/05/13 06:54:43;;;;;;;22.73;21.33;;;;;;;;;;5075702;28;20409;-83
2022/05/13 06:57:11;;;;;;;22.77;21.37;;;;;;;;;;5075701;28;20456;-83
2022/05/13 06:59:40;;;;;;;24.10;22.43;;;;;;;;;;5075626;28;20423;-84
2022/05/13 07:02:17;;;;;;;22.40;21.00;;;;;;;;;;5075750;28;20447;-83
2022/05/13 07:04:45;;;;;;;24.23;22.43;;;;;;;;;;5075644;28;20453;-83
2022/05/13 07:07:15;;;;;;;23.30;21.70;;;;;;;;;;5075282;28;20834;-83
2022/05/13 07:09:42;;;;;;;23.67;22.00;;;;;;;;;;5075610;28;20530;-83
2022/05/13 07:12:10;;;;;;;23.53;21.87;;;;;;;;;;5075334;28;20493;-84
2022/05/13 07:14:39;;;;;;;23.63;22.13;;;;;;;;;;5075753;28;20460;-83
2022/05/13 07:17:07;;;;;;;23.10;21.80;;;;;;;;;;5075137;28;20439;-83
2022/05/13 07:19:34;;;;;;;22.77;21.03;;;;;;;;;;5075035;28;20443;-83
2022/05/13 07:22:01;;;;;;;23.03;21.23;;;;;;;;;;5075251;28;20466;-84
2022/05/13 07:24:29;;;;;;;22.60;21.20;;;;;;;;;;5075099;28;20487;-83
2022/05/13 07:26:58;;;;;;;23.53;21.87;;;;;;;;;;5075595;28;20434;-82
2022/05/13 07:29:25;;;;;;;23.77;22.17;;;;;;;;;;5074886;28;20439;-82
2022/05/13 07:31:54;;;;;;;24.27;22.27;;;;;;;;;;5075104;28;20490;-84
2022/05/13 07:34:21;;;;;;;24.17;22.63;;;;;;;;;;5074804;28;20417;-84
2022/05/13 07:36:53;;;;;;;23.30;22.00;;;;;;;;;;5075119;28;20450;-83
2022/05/13 07:42:07;;;;;;;22.90;21.50;;;;;;;;;;5074927;28;20967;-83
2022/05/13 07:44:34;;;;;;;24.37;22.50;;;;;;;;;;5074799;28;20409;-83
2022/05/13 07:47:03;;;;;;;24.50;22.90;;;;;;;;;;5075197;28;20439;-83
2022/05/13 07:49:30;;;;;;;26.07;23.87;;;;;;;;;;5074784;28;20446;-83
2022/05/13 07:51:58;;;;;;;22.67;21.10;;;;;;;;;;5075348;28;20468;-82
2022/05/13 07:54:25;;;;;;;23.93;22.03;;;;;;;;;;5057798;28;20991;-84
2022/05/13 07:56:52;;;;;;;24.20;22.40;;;;;;;;;;5074628;28;20519;-84
2022/05/13 07:59:20;;;;;;;22.73;21.33;;;;;;;;;;5074340;28;20458;-84
2022/05/13 08:01:47;;;;;;;25.27;23.37;;;;;;;;;;5074271;28;20880;-83
2022/05/13 08:04:16;;;;;;;23.90;21.90;;;;;;;;;;5074306;28;20413;-84
2022/05/13 08:06:44;;;;;;;22.23;20.70;;;;;;;;;;5074805;28;20431;-84
2022/05/13 08:09:12;;;;;;;22.60;21.30;;;;;;;;;;5074206;28;20434;-83
2022/05/13 08:11:39;;;;;;;21.23;20.03;;;;;;;;;;5074010;28;20482;-84
2022/05/13 08:14:07;;;;;;;23.03;21.53;;;;;;;;;;5074065;28;20943;-83
2022/05/13 08:16:35;;;;;;;22.67;20.80;;;;;;;;;;5074387;28;20444;-83
2022/05/13 08:19:03;;;;;;;23.80;22.30;;;;;;;;;;5074366;28;20445;-84
2022/05/13 08:21:32;;;;;;;22.67;21.37;;;;;;;;;;5074157;28;20489;-83
2022/05/13 08:23:59;;;;;;;23.23;21.73;;;;;;;;;;5073995;28;20438;-84
2022/05/13 08:26:27;;;;;;;24.67;22.67;;;;;;;;;;5074324;28;20405;-83
2022/05/13 08:28:54;;;;;;;22.60;21.10;;;;;;;;;;5074108;28;20412;-84
2022/05/13 08:31:22;;;;;;;23.70;22.07;;;;;;;;;;5073871;28;20413;-84
2022/05/13 08:33:49;;;;;;;22.20;20.90;;;;;;;;;;5073748;28;20465;-84
2022/05/13 08:36:16;;;;;;;23.00;21.40;;;;;;;;;;5073984;28;20786;-84
2022/05/13 08:38:47;;;;;;;23.40;21.80;;;;;;;;;;5073901;28;20405;-84
2022/05/13 08:41:26;;;;;;;21.90;20.63;;;;;;;;;;5073094;28;20424;-84
2022/05/13 08:43:56;;;;;;;22.73;21.33;;;;;;;;;;5073842;28;20517;-84
2022/05/13 08:46:30;;;;;;;23.90;21.87;;;;;;;;;;5073825;28;20436;-84
2022/05/13 08:49:01;;;;;;;21.93;20.63;;;;;;;;;;5073397;28;20426;-83
2022/05/13 08:51:32;;;;;;;23.13;21.67;;;;;;;;;;5073162;28;20489;-83
2022/05/13 08:54:05;;;;;;;22.50;21.30;;;;;;;;;;5073541;28;20417;-83
2022/05/13 08:56:33;;;;;;;22.30;21.00;;;;;;;;;;5073251;28;20433;-83
2022/05/13 08:59:02;;;;;;;22.00;20.73;;;;;;;;;;5065302;28;20439;-83
2022/05/13 09:01:32;;;;;;;22.77;21.37;;;;;;;;;;5073283;28;20438;-84
2022/05/13 09:04:02;;;;;;;22.47;21.10;;;;;;;;;;5073463;28;20454;-84
2022/05/13 09:06:37;;;;;;;23.17;21.30;;;;;;;;;;5073748;28;20413;-84
2022/05/13 09:09:07;;;;;;;22.33;20.93;;;;;;;;;;5073732;28;20465;-84
2022/05/13 09:11:36;;;;;;;21.53;20.30;;;;;;;;;;5073408;28;20432;-84
2022/05/13 09:14:08;;;;;;;21.67;20.47;;;;;;;;;;5073582;28;20499;-84
2022/05/13 09:16:44;;;;;;;22.30;20.27;;;;;;;;;;5073499;28;20446;-84
2022/05/13 09:19:14;;;;;;;22.00;20.50;;;;;;;;;;5073235;28;20424;-84
2022/05/13 09:21:43;;;;;;;23.13;21.70;;;;;;;;;;5072864;28;20434;-84
2022/05/13 09:24:12;;;;;;;21.60;20.20;;;;;;;;;;5072957;28;20421;-84
2022/05/13 09:26:41;;;;;;;22.07;20.70;;;;;;;;;;5054800;28;20438;-83
2022/05/13 09:29:10;;;;;;;21.83;20.63;;;;;;;;;;5072893;28;20421;-84
2022/05/13 09:31:39;;;;;;;22.50;21.00;;;;;;;;;;5072763;28;20449;-84
2022/05/13 09:34:14;;;;;;;21.90;20.40;;;;;;;;;;5073007;28;20445;-83
2022/05/13 09:36:41;;;;;;;22.00;20.80;;;;;;;;;;5072706;28;20420;-83
2022/05/13 09:39:20;;;;;;;22.77;21.30;;;;;;;;;;5072656;28;20438;-83
2022/05/13 09:41:48;;;;;;;22.23;20.93;;;;;;;;;;5073064;28;20420;-83
2022/05/13 09:44:20;;;;;;;22.70;21.50;;;;;;;;;;5072756;28;20416;-87
2022/05/13 09:46:50;;;;;;;23.13;21.83;;;;;;;;;;5073423;28;20406;-87
2022/05/13 09:49:24;;;;;;;24.23;22.77;;;;;;;;;;5073965;28;20469;-83
2022/05/13 09:51:54;;;;;;;24.30;22.60;;;;;;;;;;5072757;28;20460;-84
2022/05/13 09:54:25;;;;;;;23.07;21.43;;;;;;;;;;5075869;28;20424;-84
2022/05/13 09:56:55;;;;;;;22.53;21.07;;;;;;;;;;5076724;28;20516;-84
2022/05/13 09:59:23;;;;;;;22.67;21.17;;;;;;;;;;5076776;28;20441;-85
2022/05/13 10:01:51;;;;;;;22.00;20.70;;;;;;;;;;5077000;28;20434;-83
2022/05/13 10:04:22;;;;;;;22.00;20.70;;;;;;;;;;5076859;28;20404;-84
2022/05/13 10:06:50;;;;;;;22.33;20.73;;;;;;;;;;5058551;28;20421;-83
2022/05/13 10:15:08;;;;;;;23.47;21.70;;;;;;;;;;5076460;28;20478;-82
2022/05/13 10:17:37;;;;;;;23.30;21.90;;;;;;;;;;5076123;28;21241;-82
2022/05/13 10:20:06;;;;;;;22.37;21.17;;;;;;;;;;5076394;28;20438;-82
2022/05/13 10:22:35;;;;;;;21.43;20.33;;;;;;;;;;5076531;28;20413;-82
2022/05/13 10:25:05;;;;;;;22.20;20.80;;;;;;;;;;5076271;28;20449;-83
2022/05/13 10:27:34;;;;;;;22.27;20.97;;;;;;;;;;5076497;28;20409;-84
2022/05/13 10:30:05;;;;;;;22.80;21.40;;;;;;;;;;5076656;28;20436;-82
2022/05/13 10:32:46;;;;;;;22.67;21.47;;;;;;;;;;5076622;28;20455;-84
2022/05/13 10:35:17;;;;;;;22.70;21.43;;;;;;;;;;5076327;28;20443;-84
2022/05/13 10:37:53;;;;;;;22.70;21.10;;;;;;;;;;5076003;28;20896;-83
2022/05/13 10:40:22;;;;;;;21.50;20.40;;;;;;;;;;5075843;28;20446;-84
2022/05/13 10:42:53;;;;;;;21.90;20.60;;;;;;;;;;5076192;28;20473;-84
2022/05/13 10:45:22;;;;;;;21.50;20.10;;;;;;;;;;5075805;28;20965;-83
2022/05/13 10:47:51;;;;;;;22.53;21.13;;;;;;;;;;5075787;28;20409;-84
2022/05/13 10:50:20;;;;;;;22.70;21.47;;;;;;;;;;5075516;28;21016;-84
2022/05/13 10:52:52;;;;;;;22.30;21.00;;;;;;;;;;5075175;28;20494;-83
2022/05/13 10:55:25;;;;;;;22.40;21.10;;;;;;;;;;5075501;28;20858;-83
2022/05/13 10:57:57;;;;;;;22.87;21.20;;;;;;;;;;5075725;28;20434;-84
2022/05/13 11:00:28;;;;;;;22.67;21.47;;;;;;;;;;5075748;28;20450;-84
2022/05/13 11:03:03;;;;;;;23.23;22.03;;;;;;;;;;5075426;28;20420;-83
2022/05/13 11:05:35;;;;;;;22.67;21.47;;;;;;;;;;5074898;28;20921;-83
2022/05/13 11:08:06;;;;;;;23.40;22.10;;;;;;;;;;5075494;28;20424;-84
2022/05/13 11:10:40;;;;;;;22.33;21.03;;;;;;;;;;5057329;28;20491;-84
2022/05/13 11:13:14;;;;;;;23.13;21.83;;;;;;;;;;5074896;28;20500;-84
2022/05/13 11:15:45;;;;;;;22.17;20.83;;;;;;;;;;5075337;28;20771;-83
2022/05/13 11:18:16;;;;;;;24.60;22.90;;;;;;;;;;5074874;28;20803;-83
2022/05/13 11:20:46;;;;;;;22.03;20.73;;;;;;;;;;5075105;28;20430;-83
2022/05/13 11:23:22;;;;;;;22.93;21.43;;;;;;;;;;5075019;28;20442;-84
2022/05/13 11:25:56;;;;;;;23.20;21.60;;;;;;;;;;5075145;28;20431;-83
2022/05/13 11:28:32;;;;;;;23.27;21.87;;;;;;;;;;5057613;28;20511;-86
2022/05/13 11:31:02;;;;;;;23.10;21.83;;;;;;;;;;5075102;28;20763;-85
2022/05/13 11:33:32;;;;;;;24.90;23.07;;;;;;;;;;5075480;28;20524;-85
2022/05/13 11:36:14;;;;;;;24.60;23.03;;;;;;;;;;5075812;28;20416;-92
2022/05/13 11:38:51;;;;;;;24.10;22.60;;;;;;;;;;5069079;28;20434;-86
2022/05/13 11:41:22;;;;;;;22.70;21.40;;;;;;;;;;5035891;28;20418;-94
2022/05/13 11:43:53;;;;;;;23.33;21.63;;;;;;;;;;5018203;28;20463;-95
2022/05/13 11:46:38;;;;;;;22.73;21.47;;;;;;;;;;5036433;28;20448;-94
2022/05/13 11:49:10;;;;;;;22.83;21.53;;;;;;;;;;5035042;28;20434;-80
2022/05/13 11:51:38;;;;;;;23.80;22.40;;;;;;;;;;5036137;28;20488;-96
2022/05/13 11:54:17;;;;;;;22.67;21.37;;;;;;;;;;5036204;28;20473;-95
2022/05/13 11:56:47;;;;;;;23.97;22.57;;;;;;;;;;5036988;28;20537;-93
2022/05/13 11:59:29;;;;;;;23.43;22.10;;;;;;;;;;5042827;28;20449;-95
2022/05/13 12:02:15;;;;;;;23.77;22.27;;;;;;;;;;5033714;28;20524;-96
2022/05/13 12:04:57;;;;;;;22.90;21.50;;;;;;;;;;5039649;28;20483;-96
2022/05/13 12:07:30;;;;;;;23.50;22.00;;;;;;;;;;5037360;28;20426;-96
2022/05/13 12:10:06;;;;;;;24.20;22.60;;;;;;;;;;5044479;28;20407;-96
2022/05/13 12:12:49;;;;;;;23.00;21.60;;;;;;;;;;5049380;28;20478;-92
2022/05/13 12:15:40;;;;;;;23.90;22.43;;;;;;;;;;5039780;28;20440;-97
2022/05/13 12:20:47;;;;;;;23.23;21.93;;;;;;;;;;5204530;23;20551;-96
2022/05/13 12:23:19;;;;;;;24.20;22.70;;;;;;;;;;5038945;28;20491;-96
2022/05/13 12:25:51;;;;;;;25.33;23.83;;;;;;;;;;5018433;28;20510;-92
2022/05/13 12:28:26;;;;;;;26.33;24.73;;;;;;;;;;5034573;28;20418;-84
2022/05/13 12:30:55;;;;;;;24.33;22.83;;;;;;;;;;5034296;28;20451;-84
2022/05/13 12:33:36;;;;;;;26.07;24.47;;;;;;;;;;5034059;28;20484;-85
2022/05/13 12:39:07;;;;;;;25.33;23.53;;;;;;;;;;5033934;28;20443;-85
2022/05/13 12:41:52;;;;;;;25.67;23.60;;;;;;;;;;5033935;28;20415;-85
2022/05/13 12:44:25;;;;;;;25.40;23.70;;;;;;;;;;5033629;28;20427;-84
2022/05/13 12:47:15;;;;;;;25.20;23.30;;;;;;;;;;5033528;28;20873;-84
2022/05/13 12:49:53;;;;;;;25.37;23.67;;;;;;;;;;5033519;28;20472;-84
2022/05/13 12:52:26;;;;;;;26.90;25.20;;;;;;;;;;5033543;28;20419;-93
2022/05/13 12:54:54;;;;;;;26.73;24.77;;;;;;;;;;5035359;28;20503;-96
2022/05/13 12:57:24;;;;;;;27.33;25.20;;;;;;;;;;5035743;28;20466;-92
2022/05/13 12:59:53;;;;;;;25.17;23.20;;;;;;;;;;5035168;28;20444;-83
2022/05/13 13:02:23;;;;;;;25.50;23.90;;;;;;;;;;5033631;28;20415;-83
2022/05/13 13:04:53;;;;;;;26.50;24.70;;;;;;;;;;5033459;28;20455;-83
2022/05/13 13:07:21;;;;;;;26.60;24.80;;;;;;;;;;5036177;28;20430;-83
2022/05/13 13:09:50;;;;;;;27.10;25.30;;;;;;;;;;5032750;28;20518;-83
2022/05/13 13:12:21;;;;;;;26.13;24.40;;;;;;;;;;5033857;28;20790;-84
2022/05/13 13:14:50;;;;;;;26.23;24.63;;;;;;;;;;5032458;28;20815;-84
2022/05/13 13:17:23;;;;;;;26.80;24.60;;;;;;;;;;5032726;28;20418;-82
2022/05/13 13:19:57;;;;;;;26.90;25.20;;;;;;;;;;5031865;28;20487;-86
2022/05/13 13:22:25;;;;;;;26.07;24.40;;;;;;;;;;5032151;28;20920;-83
2022/05/13 13:24:52;;;;;;;27.10;25.40;;;;;;;;;;5031959;28;20495;-82
2022/05/13 13:27:20;;;;;;;25.10;23.50;;;;;;;;;;5032424;28;20543;-83
2022/05/13 13:29:49;;;;;;;24.57;22.87;;;;;;;;;;5033257;28;20426;-83
2022/05/13 13:32:17;;;;;;;25.93;24.23;;;;;;;;;;5033911;28;20427;-83
2022/05/13 13:34:51;;;;;;;25.70;24.13;;;;;;;;;;5032698;28;20817;-85
2022/05/13 13:37:22;;;;;;;25.77;24.10;;;;;;;;;;5033213;28;20480;-79
2022/05/13 13:39:49;;;;;;;26.17;24.47;;;;;;;;;;5032960;28;20937;-91
2022/05/13 13:42:18;;;;;;;26.47;24.67;;;;;;;;;;5033316;28;20431;-85
2022/05/13 13:44:46;;;;;;;26.70;24.83;;;;;;;;;;5033163;28;20494;-82
2022/05/13 13:47:14;;;;;;;25.60;23.90;;;;;;;;;;5032873;28;20488;-81
2022/05/13 13:49:43;;;;;;;25.63;23.83;;;;;;;;;;5032600;28;20841;-79
2022/05/13 13:52:15;;;;;;;24.73;23.03;;;;;;;;;;5032575;28;20444;-78
2022/05/13 13:54:47;;;;;;;26.13;24.13;;;;;;;;;;5033252;28;20480;-81
2022/05/13 13:57:23;;;;;;;25.13;23.60;;;;;;;;;;5032373;28;20498;-78
2022/05/13 13:59:55;;;;;;;24.57;23.17;;;;;;;;;;5032604;28;20440;-79
2022/05/13 14:02:33;;;;;;;25.90;24.30;;;;;;;;;;5032305;28;20527;-79
2022/05/13 14:05:01;;;;;;;26.27;24.57;;;;;;;;;;5014286;28;20459;-78
2022/05/13 14:07:29;;;;;;;24.77;23.17;;;;;;;;;;5014996;28;20422;-79
2022/05/13 14:09:59;;;;;;;24.90;23.43;;;;;;;;;;5031995;28;20455;-78
2022/05/13 14:12:27;;;;;;;25.80;23.80;;;;;;;;;;5032331;28;20410;-86
2022/05/13 14:14:57;;;;;;;25.03;23.53;;;;;;;;;;5031051;28;21018;-90
2022/05/13 14:17:25;;;;;;;26.50;24.47;;;;;;;;;;5014047;28;20454;-89
2022/05/13 14:19:54;;;;;;;26.73;25.10;;;;;;;;;;5012399;28;20559;-81
2022/05/13 14:22:21;;;;;;;26.23;24.43;;;;;;;;;;5012805;28;20790;-81
2022/05/13 14:24:50;;;;;;;25.70;24.23;;;;;;;;;;5012308;28;20763;-81
2022/05/13 14:27:21;;;;;;;25.80;24.30;;;;;;;;;;5012565;28;20430;-83
2022/05/13 14:29:49;;;;;;;25.10;23.37;;;;;;;;;;5012708;28;20424;-83
2022/05/13 14:32:17;;;;;;;25.43;23.80;;;;;;;;;;5012305;28;20433;-77
2022/05/13 14:34:56;;;;;;;25.83;24.30;;;;;;;;;;5012331;28;20459;-80
2022/05/13 14:37:31;;;;;;;26.30;24.50;;;;;;;;;;5012472;28;20473;-80
2022/05/13 14:39:58;;;;;;;24.70;23.20;;;;;;;;;;5014446;28;20812;-81
2022/05/13 14:42:31;;;;;;;25.60;24.20;;;;;;;;;;5015849;28;20441;-81
2022/05/13 14:45:00;;;;;;;25.20;23.80;;;;;;;;;;5015872;28;20922;-80
2022/05/13 14:47:35;;;;;;;24.63;23.13;;;;;;;;;;5015765;28;20415;-80
2022/05/13 14:50:03;;;;;;;25.00;23.60;;;;;;;;;;5016114;28;20483;-80
2022/05/13 14:52:33;;;;;;;25.33;23.83;;;;;;;;;;5015865;28;20412;-82
2022/05/13 14:55:02;;;;;;;25.77;24.30;;;;;;;;;;5016269;28;21027;-81
2022/05/13 14:57:36;;;;;;;26.10;24.27;;;;;;;;;;5016916;28;20437;-82